Terminal Aerodrome Forecast
Issued by NWS

Home | Current Version | Previous Version | Graphics & Text | Print | Product List | Glossary Off
Versions: 1 2 3 4 5 6 7 8 9 10 11 12 13 14 15 16 17 18 19 20 21 22 23 24 25

000
FTUS43 KDDC 222037 AAC
TAFGCK
TAF AMD
KGCK 222037Z 2221/2318 16013G20KT P6SM SCT025
     FM230000 15015G25KT P6SM SCT100
     FM230600 16012KT 3SM BR OVC020
     FM230900 16013KT 1SM BR OVC003 WS020/19040KT
     FM231200 16013KT 1/2SM FG OVC003
     FM231500 18022G32KT 3SM BR OVC010
     FM231700 18030G40KT P6SM SCT030=

USA.gov is the U.S. government's official web portal to all federal, state and local government web resources and services.